sensor_id;sensor_type;location;lat;lon;timestamp;P1;durP1;ratioP1;P2;durP2;ratioP2
14817;SDS011;7500;57.698;11.986;2024-01-30T00:01:35;38.13;;;15.37;;
14817;SDS011;7500;57.698;11.986;2024-01-30T00:04:02;36.90;;;15.30;;
14817;SDS011;7500;57.698;11.986;2024-01-30T00:06:29;33.87;;;14.63;;
14817;SDS011;7500;57.698;11.986;2024-01-30T00:08:58;36.47;;;14.60;;
14817;SDS011;7500;57.698;11.986;2024-01-30T00:11:24;33.13;;;13.67;;
14817;SDS011;7500;57.698;11.986;2024-01-30T00:13:51;32.60;;;14.07;;
14817;SDS011;7500;57.698;11.986;2024-01-30T00:16:21;31.90;;;14.83;;
14817;SDS011;7500;57.698;11.986;2024-01-30T00:18:49;33.33;;;14.33;;
14817;SDS011;7500;57.698;11.986;2024-01-30T00:21:15;34.03;;;13.60;;
14817;SDS011;7500;57.698;11.986;2024-01-30T00:23:42;29.87;;;13.83;;
14817;SDS011;7500;57.698;11.986;2024-01-30T00:26:10;28.30;;;13.37;;
14817;SDS011;7500;57.698;11.986;2024-01-30T00:28:37;27.27;;;12.63;;
14817;SDS011;7500;57.698;11.986;2024-01-30T00:31:04;29.23;;;13.53;;
14817;SDS011;7500;57.698;11.986;2024-01-30T00:33:30;30.93;;;13.03;;
14817;SDS011;7500;57.698;11.986;2024-01-30T00:35:57;28.53;;;12.47;;
14817;SDS011;7500;57.698;11.986;2024-01-30T00:38:23;24.83;;;12.13;;
14817;SDS011;7500;57.698;11.986;2024-01-30T00:40:50;27.43;;;12.60;;
14817;SDS011;7500;57.698;11.986;2024-01-30T00:43:18;25.97;;;12.97;;
14817;SDS011;7500;57.698;11.986;2024-01-30T00:45:46;26.43;;;12.60;;
14817;SDS011;7500;57.698;11.986;2024-01-30T00:48:12;23.10;;;11.80;;
14817;SDS011;7500;57.698;11.986;2024-01-30T00:50:39;23.13;;;11.67;;
14817;SDS011;7500;57.698;11.986;2024-01-30T00:53:06;26.00;;;12.23;;
14817;SDS011;7500;57.698;11.986;2024-01-30T00:55:32;22.27;;;12.10;;
14817;SDS011;7500;57.698;11.986;2024-01-30T00:57:59;25.07;;;12.93;;
14817;SDS011;7500;57.698;11.986;2024-01-30T01:00:27;21.83;;;11.27;;
14817;SDS011;7500;57.698;11.986;2024-01-30T01:02:54;19.67;;;10.57;;
14817;SDS011;7500;57.698;11.986;2024-01-30T01:05:21;19.67;;;10.80;;
14817;SDS011;7500;57.698;11.986;2024-01-30T01:07:48;19.67;;;11.10;;
14817;SDS011;7500;57.698;11.986;2024-01-30T01:10:16;20.57;;;10.80;;
14817;SDS011;7500;57.698;11.986;2024-01-30T01:12:43;18.10;;;10.57;;
14817;SDS011;7500;57.698;11.986;2024-01-30T01:15:10;17.47;;;9.73;;
14817;SDS011;7500;57.698;11.986;2024-01-30T01:17:38;19.43;;;10.27;;
14817;SDS011;7500;57.698;11.986;2024-01-30T01:20:05;15.00;;;9.07;;
14817;SDS011;7500;57.698;11.986;2024-01-30T01:22:32;19.03;;;10.17;;
14817;SDS011;7500;57.698;11.986;2024-01-30T01:24:59;17.03;;;9.63;;
14817;SDS011;7500;57.698;11.986;2024-01-30T01:27:26;18.40;;;9.93;;
14817;SDS011;7500;57.698;11.986;2024-01-30T01:29:52;17.50;;;9.50;;
14817;SDS011;7500;57.698;11.986;2024-01-30T01:32:19;19.37;;;10.73;;
14817;SDS011;7500;57.698;11.986;2024-01-30T01:34:48;19.27;;;10.67;;
14817;SDS011;7500;57.698;11.986;2024-01-30T01:37:14;17.93;;;10.37;;
14817;SDS011;7500;57.698;11.986;2024-01-30T01:39:41;19.20;;;9.47;;
14817;SDS011;7500;57.698;11.986;2024-01-30T01:42:07;19.67;;;10.20;;
14817;SDS011;7500;57.698;11.986;2024-01-30T01:44:34;17.40;;;9.90;;
14817;SDS011;7500;57.698;11.986;2024-01-30T01:47:00;16.47;;;9.47;;
14817;SDS011;7500;57.698;11.986;2024-01-30T01:49:27;19.60;;;10.70;;
14817;SDS011;7500;57.698;11.986;2024-01-30T01:51:56;18.30;;;9.83;;
14817;SDS011;7500;57.698;11.986;2024-01-30T01:54:23;19.73;;;10.17;;
14817;SDS011;7500;57.698;11.986;2024-01-30T01:56:50;19.83;;;10.37;;
14817;SDS011;7500;57.698;11.986;2024-01-30T01:59:29;18.33;;;10.00;;
14817;SDS011;7500;57.698;11.986;2024-01-30T02:01:56;19.30;;;11.03;;
14817;SDS011;7500;57.698;11.986;2024-01-30T02:04:23;18.43;;;10.17;;
14817;SDS011;7500;57.698;11.986;2024-01-30T02:06:49;18.27;;;10.10;;
14817;SDS011;7500;57.698;11.986;2024-01-30T02:09:17;19.60;;;10.47;;
14817;SDS011;7500;57.698;11.986;2024-01-30T02:11:44;19.57;;;10.77;;
14817;SDS011;7500;57.698;11.986;2024-01-30T02:14:11;18.10;;;10.60;;
14817;SDS011;7500;57.698;11.986;2024-01-30T02:16:37;20.23;;;11.87;;
14817;SDS011;7500;57.698;11.986;2024-01-30T02:19:04;20.40;;;11.10;;
14817;SDS011;7500;57.698;11.986;2024-01-30T02:21:32;19.40;;;10.33;;
14817;SDS011;7500;57.698;11.986;2024-01-30T02:23:59;20.47;;;10.73;;
14817;SDS011;7500;57.698;11.986;2024-01-30T02:26:26;18.83;;;11.13;;
14817;SDS011;7500;57.698;11.986;2024-01-30T02:28:52;19.97;;;11.00;;
14817;SDS011;7500;57.698;11.986;2024-01-30T02:31:19;16.60;;;9.97;;
14817;SDS011;7500;57.698;11.986;2024-01-30T02:33:45;18.90;;;11.00;;
14817;SDS011;7500;57.698;11.986;2024-01-30T02:36:12;16.13;;;9.93;;
14817;SDS011;7500;57.698;11.986;2024-01-30T02:38:42;18.87;;;10.17;;
14817;SDS011;7500;57.698;11.986;2024-01-30T02:41:08;16.90;;;10.00;;
14817;SDS011;7500;57.698;11.986;2024-01-30T02:43:35;17.30;;;10.43;;
14817;SDS011;7500;57.698;11.986;2024-01-30T02:46:01;18.00;;;10.83;;
14817;SDS011;7500;57.698;11.986;2024-01-30T02:48:28;18.70;;;10.53;;
14817;SDS011;7500;57.698;11.986;2024-01-30T02:50:54;18.97;;;11.10;;
14817;SDS011;7500;57.698;11.986;2024-01-30T02:53:23;17.50;;;10.17;;
14817;SDS011;7500;57.698;11.986;2024-01-30T02:55:51;18.00;;;10.10;;
14817;SDS011;7500;57.698;11.986;2024-01-30T02:58:17;17.53;;;10.37;;
14817;SDS011;7500;57.698;11.986;2024-01-30T03:00:44;16.00;;;9.83;;
14817;SDS011;7500;57.698;11.986;2024-01-30T03:03:10;14.77;;;8.57;;
14817;SDS011;7500;57.698;11.986;2024-01-30T03:05:37;16.20;;;9.20;;
14817;SDS011;7500;57.698;11.986;2024-01-30T03:08:04;15.80;;;9.87;;
14817;SDS011;7500;57.698;11.986;2024-01-30T03:10:30;14.47;;;9.43;;
14817;SDS011;7500;57.698;11.986;2024-01-30T03:12:58;15.67;;;9.23;;
14817;SDS011;7500;57.698;11.986;2024-01-30T03:15:25;15.40;;;9.77;;
14817;SDS011;7500;57.698;11.986;2024-01-30T03:17:52;15.20;;;9.27;;
14817;SDS011;7500;57.698;11.986;2024-01-30T03:20:19;15.53;;;9.60;;
14817;SDS011;7500;57.698;11.986;2024-01-30T03:22:46;11.80;;;8.00;;
14817;SDS011;7500;57.698;11.986;2024-01-30T03:25:12;12.87;;;8.67;;
14817;SDS011;7500;57.698;11.986;2024-01-30T03:27:39;15.27;;;8.50;;
14817;SDS011;7500;57.698;11.986;2024-01-30T03:30:08;13.67;;;8.87;;
14817;SDS011;7500;57.698;11.986;2024-01-30T03:32:34;12.20;;;7.90;;
14817;SDS011;7500;57.698;11.986;2024-01-30T03:35:01;11.80;;;7.90;;
14817;SDS011;7500;57.698;11.986;2024-01-30T03:37:27;12.47;;;8.23;;
14817;SDS011;7500;57.698;11.986;2024-01-30T03:39:54;12.23;;;8.53;;
14817;SDS011;7500;57.698;11.986;2024-01-30T03:42:21;12.93;;;8.30;;
14817;SDS011;7500;57.698;11.986;2024-01-30T03:44:47;11.60;;;8.20;;
14817;SDS011;7500;57.698;11.986;2024-01-30T03:47:18;12.00;;;7.70;;
14817;SDS011;7500;57.698;11.986;2024-01-30T03:49:45;13.13;;;8.43;;
14817;SDS011;7500;57.698;11.986;2024-01-30T03:52:11;10.60;;;7.47;;
14817;SDS011;7500;57.698;11.986;2024-01-30T03:54:38;11.67;;;7.90;;
14817;SDS011;7500;57.698;11.986;2024-01-30T03:57:05;10.63;;;7.53;;
14817;SDS011;7500;57.698;11.986;2024-01-30T03:59:31;11.00;;;7.70;;
14817;SDS011;7500;57.698;11.986;2024-01-30T04:01:58;11.17;;;7.83;;
14817;SDS011;7500;57.698;11.986;2024-01-30T04:04:26;11.90;;;8.20;;
14817;SDS011;7500;57.698;11.986;2024-01-30T04:06:52;11.47;;;7.77;;
14817;SDS011;7500;57.698;11.986;2024-01-30T04:09:19;11.17;;;7.63;;
14817;SDS011;7500;57.698;11.986;2024-01-30T04:11:46;12.70;;;8.17;;
14817;SDS011;7500;57.698;11.986;2024-01-30T04:14:12;11.93;;;7.97;;
14817;SDS011;7500;57.698;11.986;2024-01-30T04:16:39;13.07;;;8.53;;
14817;SDS011;7500;57.698;11.986;2024-01-30T04:19:05;12.33;;;7.70;;
14817;SDS011;7500;57.698;11.986;2024-01-30T04:21:33;10.60;;;8.20;;
14817;SDS011;7500;57.698;11.986;2024-01-30T04:24:00;12.97;;;8.33;;
14817;SDS011;7500;57.698;11.986;2024-01-30T04:26:26;11.37;;;7.83;;
14817;SDS011;7500;57.698;11.986;2024-01-30T04:28:53;11.23;;;8.23;;
14817;SDS011;7500;57.698;11.986;2024-01-30T04:31:20;11.80;;;8.57;;
14817;SDS011;7500;57.698;11.986;2024-01-30T04:33:46;14.17;;;9.17;;
14817;SDS011;7500;57.698;11.986;2024-01-30T04:36:13;12.77;;;8.63;;
14817;SDS011;7500;57.698;11.986;2024-01-30T04:38:41;14.30;;;9.10;;
14817;SDS011;7500;57.698;11.986;2024-01-30T04:41:07;13.70;;;9.73;;
14817;SDS011;7500;57.698;11.986;2024-01-30T04:43:34;13.57;;;9.07;;
14817;SDS011;7500;57.698;11.986;2024-01-30T04:46:01;14.83;;;9.33;;
14817;SDS011;7500;57.698;11.986;2024-01-30T04:48:27;15.33;;;10.23;;
14817;SDS011;7500;57.698;11.986;2024-01-30T04:50:54;16.10;;;10.27;;
14817;SDS011;7500;57.698;11.986;2024-01-30T04:53:21;14.43;;;9.30;;
14817;SDS011;7500;57.698;11.986;2024-01-30T04:55:49;15.00;;;9.83;;
14817;SDS011;7500;57.698;11.986;2024-01-30T04:58:15;14.47;;;9.93;;
14817;SDS011;7500;57.698;11.986;2024-01-30T05:00:42;18.27;;;10.77;;
14817;SDS011;7500;57.698;11.986;2024-01-30T05:03:08;16.27;;;10.17;;
14817;SDS011;7500;57.698;11.986;2024-01-30T05:05:35;15.13;;;9.57;;
14817;SDS011;7500;57.698;11.986;2024-01-30T05:08:02;15.97;;;9.97;;
14817;SDS011;7500;57.698;11.986;2024-01-30T05:10:28;16.67;;;10.20;;
14817;SDS011;7500;57.698;11.986;2024-01-30T05:12:56;14.93;;;9.97;;
14817;SDS011;7500;57.698;11.986;2024-01-30T05:15:23;17.30;;;10.20;;
14817;SDS011;7500;57.698;11.986;2024-01-30T05:17:49;14.13;;;8.90;;
14817;SDS011;7500;57.698;11.986;2024-01-30T05:20:16;17.73;;;10.13;;
14817;SDS011;7500;57.698;11.986;2024-01-30T05:22:43;18.07;;;9.67;;
14817;SDS011;7500;57.698;11.986;2024-01-30T05:25:10;13.87;;;9.00;;
14817;SDS011;7500;57.698;11.986;2024-01-30T05:27:37;17.60;;;9.40;;
14817;SDS011;7500;57.698;11.986;2024-01-30T05:30:05;17.07;;;9.47;;
14817;SDS011;7500;57.698;11.986;2024-01-30T05:32:32;15.40;;;8.97;;
14817;SDS011;7500;57.698;11.986;2024-01-30T05:34:59;13.67;;;8.37;;
14817;SDS011;7500;57.698;11.986;2024-01-30T05:37:25;13.07;;;7.73;;
14817;SDS011;7500;57.698;11.986;2024-01-30T05:39:52;9.93;;;7.20;;
14817;SDS011;7500;57.698;11.986;2024-01-30T05:42:18;11.67;;;7.70;;
14817;SDS011;7500;57.698;11.986;2024-01-30T05:44:45;11.03;;;7.77;;
14817;SDS011;7500;57.698;11.986;2024-01-30T05:47:13;15.20;;;7.83;;
14817;SDS011;7500;57.698;11.986;2024-01-30T05:49:40;12.73;;;7.00;;
14817;SDS011;7500;57.698;11.986;2024-01-30T05:52:07;10.27;;;6.87;;
14817;SDS011;7500;57.698;11.986;2024-01-30T05:54:34;12.07;;;7.50;;
14817;SDS011;7500;57.698;11.986;2024-01-30T05:57:00;12.47;;;7.73;;
14817;SDS011;7500;57.698;11.986;2024-01-30T05:59:27;13.67;;;7.37;;
14817;SDS011;7500;57.698;11.986;2024-01-30T06:01:54;10.97;;;7.80;;
14817;SDS011;7500;57.698;11.986;2024-01-30T06:04:21;12.17;;;7.37;;
14817;SDS011;7500;57.698;11.986;2024-01-30T06:06:48;11.10;;;7.77;;
14817;SDS011;7500;57.698;11.986;2024-01-30T06:09:15;13.60;;;7.90;;
14817;SDS011;7500;57.698;11.986;2024-01-30T06:11:41;13.73;;;7.87;;
14817;SDS011;7500;57.698;11.986;2024-01-30T06:14:08;13.53;;;7.60;;
14817;SDS011;7500;57.698;11.986;2024-01-30T06:16:35;14.40;;;8.17;;
14817;SDS011;7500;57.698;11.986;2024-01-30T06:19:01;16.60;;;8.37;;
14817;SDS011;7500;57.698;11.986;2024-01-30T06:21:29;13.67;;;7.93;;
14817;SDS011;7500;57.698;11.986;2024-01-30T06:23:56;13.97;;;8.83;;
14817;SDS011;7500;57.698;11.986;2024-01-30T06:26:23;14.13;;;8.50;;
14817;SDS011;7500;57.698;11.986;2024-01-30T06:28:50;13.60;;;8.10;;
14817;SDS011;7500;57.698;11.986;2024-01-30T06:31:16;14.07;;;7.97;;
14817;SDS011;7500;57.698;11.986;2024-01-30T06:33:43;14.87;;;8.70;;
14817;SDS011;7500;57.698;11.986;2024-01-30T06:36:09;15.83;;;9.20;;
14817;SDS011;7500;57.698;11.986;2024-01-30T06:38:37;14.20;;;8.93;;
14817;SDS011;7500;57.698;11.986;2024-01-30T06:41:04;18.33;;;9.20;;
14817;SDS011;7500;57.698;11.986;2024-01-30T06:43:30;16.37;;;8.67;;
14817;SDS011;7500;57.698;11.986;2024-01-30T06:45:57;17.47;;;9.80;;
14817;SDS011;7500;57.698;11.986;2024-01-30T06:48:24;14.30;;;8.23;;
14817;SDS011;7500;57.698;11.986;2024-01-30T06:50:52;16.17;;;9.03;;
14817;SDS011;7500;57.698;11.986;2024-01-30T06:53:19;16.47;;;9.50;;
14817;SDS011;7500;57.698;11.986;2024-01-30T06:55:47;17.57;;;9.67;;
14817;SDS011;7500;57.698;11.986;2024-01-30T06:58:14;15.80;;;9.20;;
14817;SDS011;7500;57.698;11.986;2024-01-30T07:00:40;17.47;;;10.07;;
14817;SDS011;7500;57.698;11.986;2024-01-30T07:03:07;19.40;;;9.43;;
14817;SDS011;7500;57.698;11.986;2024-01-30T07:05:34;19.07;;;10.10;;
14817;SDS011;7500;57.698;11.986;2024-01-30T07:08:00;19.77;;;9.80;;
14817;SDS011;7500;57.698;11.986;2024-01-30T07:10:27;20.13;;;10.90;;
14817;SDS011;7500;57.698;11.986;2024-01-30T07:12:55;17.57;;;9.43;;
14817;SDS011;7500;57.698;11.986;2024-01-30T07:15:22;16.30;;;9.57;;
14817;SDS011;7500;57.698;11.986;2024-01-30T07:17:48;13.87;;;9.17;;
14817;SDS011;7500;57.698;11.986;2024-01-30T07:20:15;17.57;;;8.73;;
14817;SDS011;7500;57.698;11.986;2024-01-30T07:22:42;14.23;;;8.87;;
14817;SDS011;7500;57.698;11.986;2024-01-30T07:25:09;18.57;;;9.90;;
14817;SDS011;7500;57.698;11.986;2024-01-30T07:27:36;17.97;;;9.93;;
14817;SDS011;7500;57.698;11.986;2024-01-30T07:30:05;22.27;;;9.50;;
14817;SDS011;7500;57.698;11.986;2024-01-30T07:32:31;19.90;;;10.10;;
14817;SDS011;7500;57.698;11.986;2024-01-30T07:34:58;15.70;;;9.07;;
14817;SDS011;7500;57.698;11.986;2024-01-30T07:37:25;17.07;;;9.27;;
14817;SDS011;7500;57.698;11.986;2024-01-30T07:39:51;14.70;;;8.60;;
14817;SDS011;7500;57.698;11.986;2024-01-30T07:42:18;17.07;;;8.90;;
14817;SDS011;7500;57.698;11.986;2024-01-30T07:44:44;20.37;;;9.10;;
14817;SDS011;7500;57.698;11.986;2024-01-30T07:47:12;17.40;;;8.27;;
14817;SDS011;7500;57.698;11.986;2024-01-30T07:49:39;14.57;;;8.33;;
14817;SDS011;7500;57.698;11.986;2024-01-30T07:52:06;15.83;;;8.73;;
14817;SDS011;7500;57.698;11.986;2024-01-30T07:54:32;17.10;;;8.13;;
14817;SDS011;7500;57.698;11.986;2024-01-30T07:57:00;14.93;;;8.70;;
14817;SDS011;7500;57.698;11.986;2024-01-30T07:59:26;17.47;;;8.20;;
14817;SDS011;7500;57.698;11.986;2024-01-30T08:01:53;17.03;;;8.67;;
14817;SDS011;7500;57.698;11.986;2024-01-30T08:04:21;19.83;;;8.57;;
14817;SDS011;7500;57.698;11.986;2024-01-30T08:06:47;17.50;;;8.70;;
14817;SDS011;7500;57.698;11.986;2024-01-30T08:09:14;13.57;;;7.07;;
14817;SDS011;7500;57.698;11.986;2024-01-30T08:11:40;18.27;;;8.10;;
14817;SDS011;7500;57.698;11.986;2024-01-30T08:14:07;16.00;;;7.87;;
14817;SDS011;7500;57.698;11.986;2024-01-30T08:16:33;15.63;;;7.43;;
14817;SDS011;7500;57.698;11.986;2024-01-30T08:19:00;17.23;;;8.13;;
14817;SDS011;7500;57.698;11.986;2024-01-30T08:21:28;18.30;;;8.27;;
14817;SDS011;7500;57.698;11.986;2024-01-30T08:23:54;14.40;;;7.53;;
14817;SDS011;7500;57.698;11.986;2024-01-30T08:26:21;20.03;;;8.40;;
14817;SDS011;7500;57.698;11.986;2024-01-30T08:28:47;17.60;;;8.70;;
14817;SDS011;7500;57.698;11.986;2024-01-30T08:31:15;14.37;;;7.67;;
14817;SDS011;7500;57.698;11.986;2024-01-30T08:33:42;20.97;;;9.13;;
14817;SDS011;7500;57.698;11.986;2024-01-30T08:36:08;16.37;;;7.97;;
14817;SDS011;7500;57.698;11.986;2024-01-30T08:38:36;17.50;;;8.67;;
14817;SDS011;7500;57.698;11.986;2024-01-30T08:41:03;18.30;;;8.77;;
14817;SDS011;7500;57.698;11.986;2024-01-30T08:43:30;16.57;;;8.90;;
14817;SDS011;7500;57.698;11.986;2024-01-30T08:45:58;14.97;;;8.80;;
14817;SDS011;7500;57.698;11.986;2024-01-30T08:48:25;18.33;;;8.80;;
14817;SDS011;7500;57.698;11.986;2024-01-30T08:50:51;16.10;;;9.60;;
14817;SDS011;7500;57.698;11.986;2024-01-30T08:53:18;20.50;;;10.03;;
14817;SDS011;7500;57.698;11.986;2024-01-30T08:55:46;16.17;;;10.13;;
14817;SDS011;7500;57.698;11.986;2024-01-30T08:58:12;18.70;;;10.33;;
14817;SDS011;7500;57.698;11.986;2024-01-30T09:00:40;23.70;;;11.00;;
14817;SDS011;7500;57.698;11.986;2024-01-30T09:03:07;19.63;;;10.17;;
14817;SDS011;7500;57.698;11.986;2024-01-30T09:05:33;22.73;;;11.00;;
14817;SDS011;7500;57.698;11.986;2024-01-30T09:08:00;18.90;;;10.87;;
14817;SDS011;7500;57.698;11.986;2024-01-30T09:10:26;21.33;;;11.23;;
14817;SDS011;7500;57.698;11.986;2024-01-30T09:12:54;20.73;;;11.07;;
14817;SDS011;7500;57.698;11.986;2024-01-30T09:15:21;21.10;;;11.17;;
14817;SDS011;7500;57.698;11.986;2024-01-30T09:17:48;20.97;;;11.53;;
14817;SDS011;7500;57.698;11.986;2024-01-30T09:20:14;26.30;;;12.47;;
14817;SDS011;7500;57.698;11.986;2024-01-30T09:22:41;24.90;;;13.00;;
14817;SDS011;7500;57.698;11.986;2024-01-30T09:25:07;22.97;;;13.50;;
14817;SDS011;7500;57.698;11.986;2024-01-30T09:27:35;29.60;;;14.00;;
14817;SDS011;7500;57.698;11.986;2024-01-30T09:30:03;24.53;;;13.67;;
14817;SDS011;7500;57.698;11.986;2024-01-30T09:32:29;29.80;;;13.53;;
14817;SDS011;7500;57.698;11.986;2024-01-30T09:34:56;28.53;;;13.67;;
14817;SDS011;7500;57.698;11.986;2024-01-30T09:37:22;27.77;;;13.93;;
14817;SDS011;7500;57.698;11.986;2024-01-30T09:39:49;25.53;;;13.80;;
14817;SDS011;7500;57.698;11.986;2024-01-30T09:42:17;27.93;;;14.47;;
14817;SDS011;7500;57.698;11.986;2024-01-30T09:44:46;24.77;;;13.07;;
14817;SDS011;7500;57.698;11.986;2024-01-30T09:47:14;26.67;;;14.20;;
14817;SDS011;7500;57.698;11.986;2024-01-30T09:49:42;25.73;;;12.87;;
14817;SDS011;7500;57.698;11.986;2024-01-30T09:52:09;25.43;;;12.73;;
14817;SDS011;7500;57.698;11.986;2024-01-30T09:54:37;26.57;;;13.10;;
14817;SDS011;7500;57.698;11.986;2024-01-30T09:57:04;24.97;;;13.33;;
14817;SDS011;7500;57.698;11.986;2024-01-30T09:59:32;22.53;;;12.10;;
14817;SDS011;7500;57.698;11.986;2024-01-30T10:01:58;21.47;;;11.40;;
14817;SDS011;7500;57.698;11.986;2024-01-30T10:04:26;23.90;;;11.97;;
14817;SDS011;7500;57.698;11.986;2024-01-30T10:06:53;24.97;;;11.93;;
14817;SDS011;7500;57.698;11.986;2024-01-30T10:09:19;20.83;;;10.93;;
14817;SDS011;7500;57.698;11.986;2024-01-30T10:11:46;21.33;;;11.43;;
14817;SDS011;7500;57.698;11.986;2024-01-30T10:14:13;23.13;;;11.30;;
14817;SDS011;7500;57.698;11.986;2024-01-30T10:16:39;21.77;;;11.30;;
14817;SDS011;7500;57.698;11.986;2024-01-30T10:19:06;21.87;;;11.07;;
14817;SDS011;7500;57.698;11.986;2024-01-30T10:21:34;19.77;;;10.80;;
14817;SDS011;7500;57.698;11.986;2024-01-30T10:24:00;16.10;;;8.87;;
14817;SDS011;7500;57.698;11.986;2024-01-30T10:26:27;23.00;;;11.17;;
14817;SDS011;7500;57.698;11.986;2024-01-30T10:28:54;23.70;;;11.67;;
14817;SDS011;7500;57.698;11.986;2024-01-30T10:31:21;26.40;;;11.53;;
14817;SDS011;7500;57.698;11.986;2024-01-30T10:33:48;19.90;;;10.13;;
14817;SDS011;7500;57.698;11.986;2024-01-30T10:36:14;19.90;;;9.67;;
14817;SDS011;7500;57.698;11.986;2024-01-30T10:38:43;24.47;;;10.53;;
14817;SDS011;7500;57.698;11.986;2024-01-30T10:41:11;20.27;;;10.20;;
14817;SDS011;7500;57.698;11.986;2024-01-30T10:43:40;21.63;;;10.47;;
14817;SDS011;7500;57.698;11.986;2024-01-30T10:46:10;23.57;;;10.47;;
14817;SDS011;7500;57.698;11.986;2024-01-30T10:48:39;22.17;;;10.20;;
14817;SDS011;7500;57.698;11.986;2024-01-30T10:51:09;25.33;;;11.43;;
14817;SDS011;7500;57.698;11.986;2024-01-30T10:53:37;24.43;;;11.37;;
14817;SDS011;7500;57.698;11.986;2024-01-30T10:56:06;21.33;;;10.20;;
14817;SDS011;7500;57.698;11.986;2024-01-30T10:58:33;22.80;;;10.73;;
14817;SDS011;7500;57.698;11.986;2024-01-30T11:00:59;23.63;;;11.93;;
14817;SDS011;7500;57.698;11.986;2024-01-30T11:03:26;25.10;;;11.80;;
14817;SDS011;7500;57.698;11.986;2024-01-30T11:05:52;31.80;;;11.83;;
14817;SDS011;7500;57.698;11.986;2024-01-30T11:08:22;28.10;;;11.57;;
14817;SDS011;7500;57.698;11.986;2024-01-30T11:10:54;23.47;;;11.60;;
14817;SDS011;7500;57.698;11.986;2024-01-30T11:13:22;27.00;;;11.63;;
14817;SDS011;7500;57.698;11.986;2024-01-30T11:15:48;27.90;;;11.73;;
14817;SDS011;7500;57.698;11.986;2024-01-30T11:18:22;32.13;;;12.20;;
14817;SDS011;7500;57.698;11.986;2024-01-30T11:20:49;31.33;;;11.60;;
14817;SDS011;7500;57.698;11.986;2024-01-30T11:23:15;40.73;;;13.80;;
14817;SDS011;7500;57.698;11.986;2024-01-30T11:25:43;32.70;;;12.63;;
14817;SDS011;7500;57.698;11.986;2024-01-30T11:28:12;36.73;;;12.40;;
14817;SDS011;7500;57.698;11.986;2024-01-30T11:30:42;34.20;;;12.53;;
14817;SDS011;7500;57.698;11.986;2024-01-30T11:33:09;42.87;;;13.20;;
14817;SDS011;7500;57.698;11.986;2024-01-30T11:35:37;39.87;;;13.97;;
14817;SDS011;7500;57.698;11.986;2024-01-30T11:38:04;42.53;;;14.10;;
14817;SDS011;7500;57.698;11.986;2024-01-30T11:40:31;32.43;;;12.80;;
14817;SDS011;7500;57.698;11.986;2024-01-30T11:42:59;33.57;;;12.97;;
14817;SDS011;7500;57.698;11.986;2024-01-30T11:45:26;37.83;;;13.23;;
14817;SDS011;7500;57.698;11.986;2024-01-30T11:47:54;38.53;;;13.40;;
14817;SDS011;7500;57.698;11.986;2024-01-30T11:50:20;41.20;;;13.50;;
14817;SDS011;7500;57.698;11.986;2024-01-30T11:52:47;41.90;;;13.87;;
14817;SDS011;7500;57.698;11.986;2024-01-30T11:55:14;34.70;;;13.13;;
14817;SDS011;7500;57.698;11.986;2024-01-30T11:57:40;35.10;;;13.67;;
14817;SDS011;7500;57.698;11.986;2024-01-30T12:00:13;40.60;;;13.53;;
14817;SDS011;7500;57.698;11.986;2024-01-30T12:02:40;29.70;;;12.10;;
14817;SDS011;7500;57.698;11.986;2024-01-30T12:05:08;32.20;;;11.73;;
14817;SDS011;7500;57.698;11.986;2024-01-30T12:07:35;34.50;;;13.03;;
14817;SDS011;7500;57.698;11.986;2024-01-30T12:10:02;34.93;;;13.43;;
14817;SDS011;7500;57.698;11.986;2024-01-30T12:12:30;31.20;;;12.03;;
14817;SDS011;7500;57.698;11.986;2024-01-30T12:14:57;36.33;;;11.97;;
14817;SDS011;7500;57.698;11.986;2024-01-30T12:17:25;32.87;;;12.17;;
14817;SDS011;7500;57.698;11.986;2024-01-30T12:19:51;40.90;;;12.20;;
14817;SDS011;7500;57.698;11.986;2024-01-30T12:22:29;27.87;;;12.07;;
14817;SDS011;7500;57.698;11.986;2024-01-30T12:24:56;26.60;;;11.17;;
14817;SDS011;7500;57.698;11.986;2024-01-30T12:27:23;31.77;;;12.60;;
14817;SDS011;7500;57.698;11.986;2024-01-30T12:29:55;35.07;;;12.93;;
14817;SDS011;7500;57.698;11.986;2024-01-30T12:32:22;40.23;;;13.53;;
14817;SDS011;7500;57.698;11.986;2024-01-30T12:34:48;39.80;;;14.00;;
14817;SDS011;7500;57.698;11.986;2024-01-30T12:37:15;40.63;;;13.57;;
14817;SDS011;7500;57.698;11.986;2024-01-30T12:39:46;48.30;;;14.57;;
14817;SDS011;7500;57.698;11.986;2024-01-30T12:42:13;46.40;;;13.77;;
14817;SDS011;7500;57.698;11.986;2024-01-30T12:44:39;56.87;;;14.03;;
14817;SDS011;7500;57.698;11.986;2024-01-30T12:47:08;47.87;;;13.90;;
14817;SDS011;7500;57.698;11.986;2024-01-30T12:49:34;43.60;;;12.73;;
14817;SDS011;7500;57.698;11.986;2024-01-30T12:52:01;40.33;;;12.70;;
14817;SDS011;7500;57.698;11.986;2024-01-30T12:54:28;43.77;;;12.87;;
14817;SDS011;7500;57.698;11.986;2024-01-30T12:56:56;47.13;;;14.10;;
14817;SDS011;7500;57.698;11.986;2024-01-30T12:59:22;44.10;;;13.50;;
14817;SDS011;7500;57.698;11.986;2024-01-30T13:01:49;39.30;;;13.47;;
14817;SDS011;7500;57.698;11.986;2024-01-30T13:04:16;49.57;;;13.70;;
14817;SDS011;7500;57.698;11.986;2024-01-30T13:06:42;48.43;;;14.03;;
14817;SDS011;7500;57.698;11.986;2024-01-30T13:09:09;39.23;;;14.27;;
14817;SDS011;7500;57.698;11.986;2024-01-30T13:11:35;46.53;;;15.10;;
14817;SDS011;7500;57.698;11.986;2024-01-30T13:14:03;47.40;;;15.33;;
14817;SDS011;7500;57.698;11.986;2024-01-30T13:16:30;43.23;;;16.03;;
14817;SDS011;7500;57.698;11.986;2024-01-30T13:18:56;48.50;;;16.93;;
14817;SDS011;7500;57.698;11.986;2024-01-30T13:21:23;54.57;;;17.20;;
14817;SDS011;7500;57.698;11.986;2024-01-30T13:23:49;41.27;;;16.87;;
14817;SDS011;7500;57.698;11.986;2024-01-30T13:26:18;46.43;;;16.83;;
14817;SDS011;7500;57.698;11.986;2024-01-30T13:28:44;46.83;;;17.63;;
14817;SDS011;7500;57.698;11.986;2024-01-30T13:31:13;40.77;;;17.03;;
14817;SDS011;7500;57.698;11.986;2024-01-30T13:33:40;46.53;;;17.40;;
14817;SDS011;7500;57.698;11.986;2024-01-30T13:36:06;35.10;;;15.57;;
14817;SDS011;7500;57.698;11.986;2024-01-30T13:38:33;41.87;;;17.33;;
14817;SDS011;7500;57.698;11.986;2024-01-30T13:41:00;31.40;;;16.10;;
14817;SDS011;7500;57.698;11.986;2024-01-30T13:43:26;36.37;;;16.70;;
14817;SDS011;7500;57.698;11.986;2024-01-30T13:45:53;40.70;;;17.10;;
14817;SDS011;7500;57.698;11.986;2024-01-30T13:48:21;34.93;;;16.30;;
14817;SDS011;7500;57.698;11.986;2024-01-30T13:50:47;29.40;;;14.83;;
14817;SDS011;7500;57.698;11.986;2024-01-30T13:53:14;29.43;;;15.07;;
14817;SDS011;7500;57.698;11.986;2024-01-30T13:55:40;31.47;;;14.67;;
14817;SDS011;7500;57.698;11.986;2024-01-30T13:58:07;29.50;;;15.30;;
14817;SDS011;7500;57.698;11.986;2024-01-30T14:00:33;32.17;;;14.63;;
14817;SDS011;7500;57.698;11.986;2024-01-30T14:03:00;33.00;;;15.07;;
14817;SDS011;7500;57.698;11.986;2024-01-30T14:05:28;26.37;;;13.97;;
14817;SDS011;7500;57.698;11.986;2024-01-30T14:07:55;26.50;;;13.97;;
14817;SDS011;7500;57.698;11.986;2024-01-30T14:10:21;29.53;;;14.70;;
14817;SDS011;7500;57.698;11.986;2024-01-30T14:12:48;32.17;;;15.13;;
14817;SDS011;7500;57.698;11.986;2024-01-30T14:15:15;31.10;;;15.43;;
14817;SDS011;7500;57.698;11.986;2024-01-30T14:17:43;30.50;;;15.67;;
14817;SDS011;7500;57.698;11.986;2024-01-30T14:20:10;26.97;;;15.57;;
14817;SDS011;7500;57.698;11.986;2024-01-30T14:22:38;30.53;;;16.37;;
14817;SDS011;7500;57.698;11.986;2024-01-30T14:25:05;27.33;;;15.43;;